sensor_id;sensor_type;location;lat;lon;timestamp;temperature;humidity
13198;DHT22;6664;52.514;13.440;2024-02-14T00:02:38;2.90;96.70
13198;DHT22;6664;52.514;13.440;2024-02-14T00:05:24;3.00;95.40
13198;DHT22;6664;52.514;13.440;2024-02-14T00:08:09;3.10;94.10
13198;DHT22;6664;52.514;13.440;2024-02-14T00:10:56;3.10;93.10
13198;DHT22;6664;52.514;13.440;2024-02-14T00:13:41;3.10;91.30
13198;DHT22;6664;52.514;13.440;2024-02-14T00:16:28;3.10;91.00
13198;DHT22;6664;52.514;13.440;2024-02-14T00:19:15;3.00;90.90
13198;DHT22;6664;52.514;13.440;2024-02-14T00:22:01;2.90;90.90
13198;DHT22;6664;52.514;13.440;2024-02-14T00:24:46;2.80;87.80
13198;DHT22;6664;52.514;13.440;2024-02-14T00:27:32;2.70;89.70
13198;DHT22;6664;52.514;13.440;2024-02-14T00:30:18;2.80;91.40
13198;DHT22;6664;52.514;13.440;2024-02-14T00:33:04;2.80;90.70
13198;DHT22;6664;52.514;13.440;2024-02-14T00:35:50;2.80;91.40
13198;DHT22;6664;52.514;13.440;2024-02-14T00:38:35;2.90;91.50
13198;DHT22;6664;52.514;13.440;2024-02-14T00:41:21;2.90;90.90
13198;DHT22;6664;52.514;13.440;2024-02-14T00:44:06;2.90;90.80
13198;DHT22;6664;52.514;13.440;2024-02-14T00:46:58;3.00;90.20
13198;DHT22;6664;52.514;13.440;2024-02-14T00:49:47;3.10;87.60
13198;DHT22;6664;52.514;13.440;2024-02-14T00:52:33;3.00;86.20
13198;DHT22;6664;52.514;13.440;2024-02-14T00:55:19;2.90;85.80
13198;DHT22;6664;52.514;13.440;2024-02-14T00:58:05;2.90;86.00
13198;DHT22;6664;52.514;13.440;2024-02-14T01:00:50;2.90;88.80
13198;DHT22;6664;52.514;13.440;2024-02-14T01:03:38;2.90;88.50
13198;DHT22;6664;52.514;13.440;2024-02-14T01:06:30;3.00;86.60
13198;DHT22;6664;52.514;13.440;2024-02-14T01:09:19;3.00;85.30
13198;DHT22;6664;52.514;13.440;2024-02-14T01:12:05;3.00;84.30
13198;DHT22;6664;52.514;13.440;2024-02-14T01:14:50;3.00;82.70
13198;DHT22;6664;52.514;13.440;2024-02-14T01:17:36;2.90;84.00
13198;DHT22;6664;52.514;13.440;2024-02-14T01:20:24;2.90;86.20
13198;DHT22;6664;52.514;13.440;2024-02-14T01:23:09;2.80;86.90
13198;DHT22;6664;52.514;13.440;2024-02-14T01:25:55;2.80;86.80
13198;DHT22;6664;52.514;13.440;2024-02-14T01:28:41;2.80;89.40
13198;DHT22;6664;52.514;13.440;2024-02-14T01:31:29;2.80;87.20
13198;DHT22;6664;52.514;13.440;2024-02-14T01:34:15;2.80;89.60
13198;DHT22;6664;52.514;13.440;2024-02-14T01:37:01;2.80;90.80
13198;DHT22;6664;52.514;13.440;2024-02-14T01:39:47;3.00;90.80
13198;DHT22;6664;52.514;13.440;2024-02-14T01:42:33;3.00;86.80
13198;DHT22;6664;52.514;13.440;2024-02-14T01:45:18;3.10;84.90
13198;DHT22;6664;52.514;13.440;2024-02-14T01:48:06;3.00;84.40
13198;DHT22;6664;52.514;13.440;2024-02-14T01:50:52;3.20;81.50
13198;DHT22;6664;52.514;13.440;2024-02-14T01:53:38;3.30;79.00
13198;DHT22;6664;52.514;13.440;2024-02-14T01:56:24;3.30;76.30
13198;DHT22;6664;52.514;13.440;2024-02-14T01:59:12;3.30;74.60
13198;DHT22;6664;52.514;13.440;2024-02-14T02:01:58;3.30;73.10
13198;DHT22;6664;52.514;13.440;2024-02-14T02:04:46;3.40;72.20
13198;DHT22;6664;52.514;13.440;2024-02-14T02:07:32;3.40;70.00
13198;DHT22;6664;52.514;13.440;2024-02-14T02:10:18;3.40;68.60
13198;DHT22;6664;52.514;13.440;2024-02-14T02:13:04;3.40;67.50
13198;DHT22;6664;52.514;13.440;2024-02-14T02:15:50;3.40;67.00
13198;DHT22;6664;52.514;13.440;2024-02-14T02:18:37;3.30;66.60
13198;DHT22;6664;52.514;13.440;2024-02-14T02:21:23;3.30;66.40
13198;DHT22;6664;52.514;13.440;2024-02-14T02:24:09;3.30;67.20
13198;DHT22;6664;52.514;13.440;2024-02-14T02:26:55;3.30;67.10
13198;DHT22;6664;52.514;13.440;2024-02-14T02:29:42;3.30;67.40
13198;DHT22;6664;52.514;13.440;2024-02-14T02:32:28;3.30;66.70
13198;DHT22;6664;52.514;13.440;2024-02-14T02:35:14;3.30;67.40
13198;DHT22;6664;52.514;13.440;2024-02-14T02:38:00;3.20;67.50
13198;DHT22;6664;52.514;13.440;2024-02-14T02:40:48;3.20;68.30
13198;DHT22;6664;52.514;13.440;2024-02-14T02:43:34;3.10;69.90
13198;DHT22;6664;52.514;13.440;2024-02-14T02:46:20;3.10;69.90
13198;DHT22;6664;52.514;13.440;2024-02-14T02:49:07;3.10;71.40
13198;DHT22;6664;52.514;13.440;2024-02-14T02:51:53;3.10;72.40
13198;DHT22;6664;52.514;13.440;2024-02-14T02:54:40;3.00;71.90
13198;DHT22;6664;52.514;13.440;2024-02-14T02:57:27;2.90;73.50
13198;DHT22;6664;52.514;13.440;2024-02-14T03:00:13;2.80;75.30
13198;DHT22;6664;52.514;13.440;2024-02-14T03:02:59;2.80;77.30
13198;DHT22;6664;52.514;13.440;2024-02-14T03:05:46;2.80;79.70
13198;DHT22;6664;52.514;13.440;2024-02-14T03:08:32;2.80;82.00
13198;DHT22;6664;52.514;13.440;2024-02-14T03:11:19;2.80;80.20
13198;DHT22;6664;52.514;13.440;2024-02-14T03:14:05;2.90;80.80
13198;DHT22;6664;52.514;13.440;2024-02-14T03:16:51;3.00;79.90
13198;DHT22;6664;52.514;13.440;2024-02-14T03:19:36;3.00;77.30
13198;DHT22;6664;52.514;13.440;2024-02-14T03:22:24;2.90;77.10
13198;DHT22;6664;52.514;13.440;2024-02-14T03:25:11;2.90;76.80
13198;DHT22;6664;52.514;13.440;2024-02-14T03:27:57;2.90;78.60
13198;DHT22;6664;52.514;13.440;2024-02-14T03:30:44;2.90;79.00
13198;DHT22;6664;52.514;13.440;2024-02-14T03:33:30;3.00;77.30
13198;DHT22;6664;52.514;13.440;2024-02-14T03:36:15;3.00;76.90
13198;DHT22;6664;52.514;13.440;2024-02-14T03:39:01;3.00;77.10
13198;DHT22;6664;52.514;13.440;2024-02-14T03:41:49;3.10;74.60
13198;DHT22;6664;52.514;13.440;2024-02-14T03:44:35;3.10;73.40
13198;DHT22;6664;52.514;13.440;2024-02-14T03:47:23;3.20;72.50
13198;DHT22;6664;52.514;13.440;2024-02-14T03:50:13;3.20;71.00
13198;DHT22;6664;52.514;13.440;2024-02-14T03:53:00;3.30;69.40
13198;DHT22;6664;52.514;13.440;2024-02-14T03:55:49;3.30;68.60
13198;DHT22;6664;52.514;13.440;2024-02-14T03:58:35;3.30;67.80
13198;DHT22;6664;52.514;13.440;2024-02-14T04:01:22;3.30;66.50
13198;DHT22;6664;52.514;13.440;2024-02-14T04:04:08;3.30;65.50
13198;DHT22;6664;52.514;13.440;2024-02-14T04:06:54;3.40;64.10
13198;DHT22;6664;52.514;13.440;2024-02-14T04:09:39;3.30;63.30
13198;DHT22;6664;52.514;13.440;2024-02-14T04:12:25;3.30;63.70
13198;DHT22;6664;52.514;13.440;2024-02-14T04:15:11;3.40;62.90
13198;DHT22;6664;52.514;13.440;2024-02-14T04:18:00;3.50;62.40
13198;DHT22;6664;52.514;13.440;2024-02-14T04:20:51;3.50;60.20
13198;DHT22;6664;52.514;13.440;2024-02-14T04:23:37;3.50;57.20
13198;DHT22;6664;52.514;13.440;2024-02-14T04:26:23;3.50;57.30
13198;DHT22;6664;52.514;13.440;2024-02-14T04:29:08;3.60;56.10
13198;DHT22;6664;52.514;13.440;2024-02-14T04:31:54;3.60;53.90
13198;DHT22;6664;52.514;13.440;2024-02-14T04:34:40;3.60;53.60
13198;DHT22;6664;52.514;13.440;2024-02-14T04:37:29;3.70;52.50
13198;DHT22;6664;52.514;13.440;2024-02-14T04:40:15;3.70;52.40
13198;DHT22;6664;52.514;13.440;2024-02-14T04:43:00;3.70;52.10
13198;DHT22;6664;52.514;13.440;2024-02-14T04:45:46;3.80;51.00
13198;DHT22;6664;52.514;13.440;2024-02-14T04:48:33;3.80;50.00
13198;DHT22;6664;52.514;13.440;2024-02-14T04:51:22;3.80;49.00
13198;DHT22;6664;52.514;13.440;2024-02-14T04:54:08;3.80;48.90
13198;DHT22;6664;52.514;13.440;2024-02-14T04:56:54;3.90;48.90
13198;DHT22;6664;52.514;13.440;2024-02-14T04:59:47;4.00;47.60
13198;DHT22;6664;52.514;13.440;2024-02-14T05:02:32;3.90;46.20
13198;DHT22;6664;52.514;13.440;2024-02-14T05:05:18;3.90;46.00
13198;DHT22;6664;52.514;13.440;2024-02-14T05:08:06;4.00;46.70
13198;DHT22;6664;52.514;13.440;2024-02-14T05:10:52;4.00;46.00
13198;DHT22;6664;52.514;13.440;2024-02-14T05:13:37;4.10;46.20
13198;DHT22;6664;52.514;13.440;2024-02-14T05:16:23;4.10;44.30
13198;DHT22;6664;52.514;13.440;2024-02-14T05:19:09;4.10;43.90
13198;DHT22;6664;52.514;13.440;2024-02-14T05:21:58;4.10;42.60
13198;DHT22;6664;52.514;13.440;2024-02-14T05:24:44;4.10;42.60
13198;DHT22;6664;52.514;13.440;2024-02-14T05:27:33;4.10;44.60
13198;DHT22;6664;52.514;13.440;2024-02-14T05:30:19;4.20;44.30
13198;DHT22;6664;52.514;13.440;2024-02-14T05:33:05;4.10;43.60
13198;DHT22;6664;52.514;13.440;2024-02-14T05:35:51;4.10;43.20
13198;DHT22;6664;52.514;13.440;2024-02-14T05:38:37;4.20;43.40
13198;DHT22;6664;52.514;13.440;2024-02-14T05:41:23;4.20;43.60
13198;DHT22;6664;52.514;13.440;2024-02-14T05:44:09;4.10;43.40
13198;DHT22;6664;52.514;13.440;2024-02-14T05:46:57;4.10;43.50
13198;DHT22;6664;52.514;13.440;2024-02-14T05:49:42;4.10;44.00
13198;DHT22;6664;52.514;13.440;2024-02-14T05:52:31;4.20;43.60
13198;DHT22;6664;52.514;13.440;2024-02-14T05:55:18;4.10;43.90
13198;DHT22;6664;52.514;13.440;2024-02-14T05:58:10;4.10;43.00
13198;DHT22;6664;52.514;13.440;2024-02-14T06:01:01;4.10;43.00
13198;DHT22;6664;52.514;13.440;2024-02-14T06:03:46;4.20;44.90
13198;DHT22;6664;52.514;13.440;2024-02-14T06:06:32;4.20;43.90
13198;DHT22;6664;52.514;13.440;2024-02-14T06:09:18;4.20;43.40
13198;DHT22;6664;52.514;13.440;2024-02-14T06:12:04;4.20;43.80
13198;DHT22;6664;52.514;13.440;2024-02-14T06:14:51;4.30;43.60
13198;DHT22;6664;52.514;13.440;2024-02-14T06:17:36;4.20;42.70
13198;DHT22;6664;52.514;13.440;2024-02-14T06:20:22;4.20;42.70
13198;DHT22;6664;52.514;13.440;2024-02-14T06:23:10;4.20;42.70
13198;DHT22;6664;52.514;13.440;2024-02-14T06:25:58;4.30;43.10
13198;DHT22;6664;52.514;13.440;2024-02-14T06:28:44;4.30;42.70
13198;DHT22;6664;52.514;13.440;2024-02-14T06:31:31;4.30;42.80
13198;DHT22;6664;52.514;13.440;2024-02-14T06:34:16;4.30;42.80
13198;DHT22;6664;52.514;13.440;2024-02-14T06:37:02;4.30;42.90
13198;DHT22;6664;52.514;13.440;2024-02-14T06:39:50;4.40;41.90
13198;DHT22;6664;52.514;13.440;2024-02-14T06:42:35;4.40;41.90
13198;DHT22;6664;52.514;13.440;2024-02-14T06:45:23;4.40;41.00
13198;DHT22;6664;52.514;13.440;2024-02-14T06:48:11;4.50;41.40
13198;DHT22;6664;52.514;13.440;2024-02-14T06:50:57;4.60;38.90
13198;DHT22;6664;52.514;13.440;2024-02-14T06:53:45;4.70;38.90
13198;DHT22;6664;52.514;13.440;2024-02-14T06:56:30;4.70;37.70
13198;DHT22;6664;52.514;13.440;2024-02-14T06:59:16;4.90;35.90
13198;DHT22;6664;52.514;13.440;2024-02-14T07:02:05;4.90;32.70
13198;DHT22;6664;52.514;13.440;2024-02-14T07:04:58;5.00;32.40
13198;DHT22;6664;52.514;13.440;2024-02-14T07:07:44;5.00;31.50
13198;DHT22;6664;52.514;13.440;2024-02-14T07:10:29;5.10;29.90
13198;DHT22;6664;52.514;13.440;2024-02-14T07:13:15;5.10;28.90
13198;DHT22;6664;52.514;13.440;2024-02-14T07:16:00;5.00;28.50
13198;DHT22;6664;52.514;13.440;2024-02-14T07:18:46;5.10;27.90
13198;DHT22;6664;52.514;13.440;2024-02-14T07:21:33;5.20;26.70
13198;DHT22;6664;52.514;13.440;2024-02-14T07:24:22;5.20;26.30
13198;DHT22;6664;52.514;13.440;2024-02-14T07:27:08;5.20;26.90
13198;DHT22;6664;52.514;13.440;2024-02-14T07:29:56;5.30;26.60
13198;DHT22;6664;52.514;13.440;2024-02-14T07:32:46;5.40;24.90
13198;DHT22;6664;52.514;13.440;2024-02-14T07:35:37;5.50;23.90
13198;DHT22;6664;52.514;13.440;2024-02-14T07:38:22;5.60;22.90
13198;DHT22;6664;52.514;13.440;2024-02-14T07:41:08;5.70;22.40
13198;DHT22;6664;52.514;13.440;2024-02-14T07:43:54;5.70;21.20
13198;DHT22;6664;52.514;13.440;2024-02-14T07:46:39;5.90;20.10
13198;DHT22;6664;52.514;13.440;2024-02-14T07:49:25;6.00;19.70
13198;DHT22;6664;52.514;13.440;2024-02-14T07:52:11;6.00;18.20
13198;DHT22;6664;52.514;13.440;2024-02-14T07:54:56;6.10;17.30
13198;DHT22;6664;52.514;13.440;2024-02-14T07:57:42;6.20;15.90
13198;DHT22;6664;52.514;13.440;2024-02-14T08:00:28;6.30;15.10
13198;DHT22;6664;52.514;13.440;2024-02-14T08:03:13;6.40;13.90
13198;DHT22;6664;52.514;13.440;2024-02-14T08:06:02;6.40;12.20
13198;DHT22;6664;52.514;13.440;2024-02-14T08:08:48;6.40;11.70
13198;DHT22;6664;52.514;13.440;2024-02-14T08:11:37;6.50;10.90
13198;DHT22;6664;52.514;13.440;2024-02-14T08:14:23;6.40;11.20
13198;DHT22;6664;52.514;13.440;2024-02-14T08:17:11;6.40;10.80
13198;DHT22;6664;52.514;13.440;2024-02-14T08:19:56;6.40;12.00
13198;DHT22;6664;52.514;13.440;2024-02-14T08:22:42;6.50;10.80
13198;DHT22;6664;52.514;13.440;2024-02-14T08:25:27;6.50;12.80
13198;DHT22;6664;52.514;13.440;2024-02-14T08:28:13;6.50;16.10
13198;DHT22;6664;52.514;13.440;2024-02-14T08:30:58;6.40;15.40
13198;DHT22;6664;52.514;13.440;2024-02-14T08:33:44;6.40;16.10
13198;DHT22;6664;52.514;13.440;2024-02-14T08:36:29;6.40;17.30
13198;DHT22;6664;52.514;13.440;2024-02-14T08:39:18;6.30;19.70
13198;DHT22;6664;52.514;13.440;2024-02-14T08:42:05;6.30;23.70
13198;DHT22;6664;52.514;13.440;2024-02-14T08:44:53;6.40;25.30
13198;DHT22;6664;52.514;13.440;2024-02-14T08:47:39;6.50;24.60
13198;DHT22;6664;52.514;13.440;2024-02-14T08:50:25;6.60;22.80
13198;DHT22;6664;52.514;13.440;2024-02-14T08:53:11;6.70;22.00
13198;DHT22;6664;52.514;13.440;2024-02-14T08:55:58;6.90;22.60
13198;DHT22;6664;52.514;13.440;2024-02-14T08:58:44;7.10;19.80
13198;DHT22;6664;52.514;13.440;2024-02-14T09:01:32;7.30;19.90
13198;DHT22;6664;52.514;13.440;2024-02-14T09:04:18;7.40;17.80
13198;DHT22;6664;52.514;13.440;2024-02-14T09:07:04;7.50;20.00
13198;DHT22;6664;52.514;13.440;2024-02-14T09:09:49;7.50;19.20
13198;DHT22;6664;52.514;13.440;2024-02-14T09:12:35;7.40;19.50
13198;DHT22;6664;52.514;13.440;2024-02-14T09:15:20;7.60;21.10
13198;DHT22;6664;52.514;13.440;2024-02-14T09:18:06;7.80;21.30
13198;DHT22;6664;52.514;13.440;2024-02-14T09:20:52;7.90;19.80
13198;DHT22;6664;52.514;13.440;2024-02-14T09:23:38;7.70;19.50
13198;DHT22;6664;52.514;13.440;2024-02-14T09:26:25;7.70;19.30
13198;DHT22;6664;52.514;13.440;2024-02-14T09:29:12;7.80;20.00
13198;DHT22;6664;52.514;13.440;2024-02-14T09:31:59;7.80;19.10
13198;DHT22;6664;52.514;13.440;2024-02-14T09:34:44;7.90;21.40
13198;DHT22;6664;52.514;13.440;2024-02-14T09:37:31;7.90;20.80
13198;DHT22;6664;52.514;13.440;2024-02-14T09:40:16;8.00;23.00
13198;DHT22;6664;52.514;13.440;2024-02-14T09:43:04;8.00;22.00
13198;DHT22;6664;52.514;13.440;2024-02-14T09:45:51;7.80;23.20
13198;DHT22;6664;52.514;13.440;2024-02-14T09:48:37;7.90;26.70
13198;DHT22;6664;52.514;13.440;2024-02-14T09:51:24;7.90;27.20
13198;DHT22;6664;52.514;13.440;2024-02-14T09:54:10;7.90;30.10
13198;DHT22;6664;52.514;13.440;2024-02-14T09:56:59;7.80;30.00
13198;DHT22;6664;52.514;13.440;2024-02-14T09:59:47;7.70;33.00
13198;DHT22;6664;52.514;13.440;2024-02-14T10:02:34;7.80;37.10
13198;DHT22;6664;52.514;13.440;2024-02-14T10:05:20;7.70;40.50
13198;DHT22;6664;52.514;13.440;2024-02-14T10:08:07;7.70;42.90
13198;DHT22;6664;52.514;13.440;2024-02-14T10:10:57;7.70;45.50
13198;DHT22;6664;52.514;13.440;2024-02-14T10:13:44;7.90;45.70
13198;DHT22;6664;52.514;13.440;2024-02-14T10:16:31;7.90;46.40
13198;DHT22;6664;52.514;13.440;2024-02-14T10:19:19;7.90;47.80
13198;DHT22;6664;52.514;13.440;2024-02-14T10:22:05;8.00;45.90
13198;DHT22;6664;52.514;13.440;2024-02-14T10:24:52;8.10;51.00
13198;DHT22;6664;52.514;13.440;2024-02-14T10:27:42;8.30;48.70
13198;DHT22;6664;52.514;13.440;2024-02-14T10:30:28;8.50;46.20
13198;DHT22;6664;52.514;13.440;2024-02-14T10:33:14;8.40;43.50
13198;DHT22;6664;52.514;13.440;2024-02-14T10:36:12;8.40;43.20
13198;DHT22;6664;52.514;13.440;2024-02-14T10:38:59;8.40;46.50
13198;DHT22;6664;52.514;13.440;2024-02-14T10:41:45;8.40;48.90
13198;DHT22;6664;52.514;13.440;2024-02-14T10:44:31;8.40;51.30
13198;DHT22;6664;52.514;13.440;2024-02-14T10:47:19;8.50;53.20
13198;DHT22;6664;52.514;13.440;2024-02-14T10:50:07;8.20;49.70
13198;DHT22;6664;52.514;13.440;2024-02-14T10:52:57;8.30;55.80
13198;DHT22;6664;52.514;13.440;2024-02-14T10:55:47;8.20;53.20
13198;DHT22;6664;52.514;13.440;2024-02-14T10:58:35;8.50;56.60
13198;DHT22;6664;52.514;13.440;2024-02-14T11:01:22;8.60;56.50
13198;DHT22;6664;52.514;13.440;2024-02-14T11:04:13;9.00;54.60
13198;DHT22;6664;52.514;13.440;2024-02-14T11:06:59;9.30;47.00
13198;DHT22;6664;52.514;13.440;2024-02-14T11:09:48;9.60;43.40
13198;DHT22;6664;52.514;13.440;2024-02-14T11:12:47;9.80;39.50
13198;DHT22;6664;52.514;13.440;2024-02-14T11:15:35;9.90;34.70
13198;DHT22;6664;52.514;13.440;2024-02-14T11:18:28;10.10;32.80
13198;DHT22;6664;52.514;13.440;2024-02-14T11:21:20;10.20;29.10
13198;DHT22;6664;52.514;13.440;2024-02-14T11:24:06;9.90;30.00
13198;DHT22;6664;52.514;13.440;2024-02-14T11:26:55;9.80;29.60
13198;DHT22;6664;52.514;13.440;2024-02-14T11:29:51;9.60;33.50
13198;DHT22;6664;52.514;13.440;2024-02-14T11:32:38;9.40;42.20
13198;DHT22;6664;52.514;13.440;2024-02-14T11:35:28;9.30;47.30
13198;DHT22;6664;52.514;13.440;2024-02-14T11:38:13;9.40;47.50
13198;DHT22;6664;52.514;13.440;2024-02-14T11:40:59;9.30;49.40
13198;DHT22;6664;52.514;13.440;2024-02-14T11:43:52;9.30;48.90
13198;DHT22;6664;52.514;13.440;2024-02-14T11:46:37;9.30;49.50
13198;DHT22;6664;52.514;13.440;2024-02-14T11:49:23;9.20;51.70
13198;DHT22;6664;52.514;13.440;2024-02-14T11:52:12;9.20;51.50
13198;DHT22;6664;52.514;13.440;2024-02-14T11:55:00;9.30;52.00
13198;DHT22;6664;52.514;13.440;2024-02-14T11:57:45;9.40;51.50
13198;DHT22;6664;52.514;13.440;2024-02-14T12:00:33;9.50;51.30
13198;DHT22;6664;52.514;13.440;2024-02-14T12:03:22;9.50;48.70
13198;DHT22;6664;52.514;13.440;2024-02-14T12:06:08;9.50;49.00
13198;DHT22;6664;52.514;13.440;2024-02-14T12:08:54;9.40;50.10
13198;DHT22;6664;52.514;13.440;2024-02-14T12:11:41;9.20;51.60
13198;DHT22;6664;52.514;13.440;2024-02-14T12:14:35;9.40;57.10
13198;DHT22;6664;52.514;13.440;2024-02-14T12:17:21;9.40;54.90
13198;DHT22;6664;52.514;13.440;2024-02-14T12:20:12;9.30;55.00
13198;DHT22;6664;52.514;13.440;2024-02-14T12:22:59;9.20;59.10
13198;DHT22;6664;52.514;13.440;2024-02-14T12:25:48;9.10;60.00
13198;DHT22;6664;52.514;13.440;2024-02-14T12:28:34;9.10;64.10
13198;DHT22;6664;52.514;13.440;2024-02-14T12:31:24;9.10;62.10
13198;DHT22;6664;52.514;13.440;2024-02-14T12:34:11;9.20;67.50
13198;DHT22;6664;52.514;13.440;2024-02-14T12:36:58;9.50;66.50
13198;DHT22;6664;52.514;13.440;2024-02-14T12:39:45;9.40;62.10
13198;DHT22;6664;52.514;13.440;2024-02-14T12:42:32;9.40;63.60
13198;DHT22;6664;52.514;13.440;2024-02-14T12:45:22;9.60;59.50
13198;DHT22;6664;52.514;13.440;2024-02-14T12:48:12;9.40;61.50
13198;DHT22;6664;52.514;13.440;2024-02-14T12:50:59;9.10;65.80
13198;DHT22;6664;52.514;13.440;2024-02-14T12:53:44;9.10;69.50
13198;DHT22;6664;52.514;13.440;2024-02-14T12:56:31;9.20;73.00
13198;DHT22;6664;52.514;13.440;2024-02-14T12:59:17;9.20;70.10
13198;DHT22;6664;52.514;13.440;2024-02-14T13:02:03;9.30;72.80
13198;DHT22;6664;52.514;13.440;2024-02-14T13:04:52;9.50;68.20
13198;DHT22;6664;52.514;13.440;2024-02-14T13:07:38;9.50;66.90
13198;DHT22;6664;52.514;13.440;2024-02-14T13:10:23;9.40;67.60
13198;DHT22;6664;52.514;13.440;2024-02-14T13:13:09;9.60;66.80
13198;DHT22;6664;52.514;13.440;2024-02-14T13:15:59;9.40;69.30
13198;DHT22;6664;52.514;13.440;2024-02-14T13:18:44;9.40;75.50
13198;DHT22;6664;52.514;13.440;2024-02-14T13:21:33;9.30;86.30
13198;DHT22;6664;52.514;13.440;2024-02-14T13:24:21;9.20;92.40
13198;DHT22;6664;52.514;13.440;2024-02-14T13:27:07;9.10;96.20
13198;DHT22;6664;52.514;13.440;2024-02-14T13:29:53;9.00;99.90
13198;DHT22;6664;52.514;13.440;2024-02-14T13:32:39;8.90;99.90
13198;DHT22;6664;52.514;13.440;2024-02-14T13:35:25;9.00;99.90
13198;DHT22;6664;52.514;13.440;2024-02-14T13:38:11;9.10;99.90
13198;DHT22;6664;52.514;13.440;2024-02-14T13:40:59;8.90;99.90
13198;DHT22;6664;52.514;13.440;2024-02-14T13:43:44;9.00;99.90
13198;DHT22;6664;52.514;13.440;2024-02-14T13:46:32;8.90;99.90
13198;DHT22;6664;52.514;13.440;2024-02-14T13:49:18;8.90;99.90
13198;DHT22;6664;52.514;13.440;2024-02-14T13:52:07;8.90;99.90
13198;DHT22;6664;52.514;13.440;2024-02-14T13:54:53;8.90;99.90
13198;DHT22;6664;52.514;13.440;2024-02-14T13:57:38;8.90;99.90
13198;DHT22;6664;52.514;13.440;2024-02-14T14:00:24;8.80;99.90
13198;DHT22;6664;52.514;13.440;2024-02-14T14:03:10;8.80;99.90
13198;DHT22;6664;52.514;13.440;2024-02-14T14:05:58;8.90;99.90
13198;DHT22;6664;52.514;13.440;2024-02-14T14:08:46;9.00;99.90
13198;DHT22;6664;52.514;13.440;2024-02-14T14:11:36;9.00;99.90
13198;DHT22;6664;52.514;13.440;2024-02-14T14:14:24;8.90;99.90
13198;DHT22;6664;52.514;13.440;2024-02-14T14:17:14;8.80;99.90
13198;DHT22;6664;52.514;13.440;2024-02-14T14:20:05;8.80;99.90
13198;DHT22;6664;52.514;13.440;2024-02-14T14:22:55;8.90;99.90
13198;DHT22;6664;52.514;13.440;2024-02-14T14:25:41;8.90;99.90
13198;DHT22;6664;52.514;13.440;2024-02-14T14:28:29;8.70;99.90
13198;DHT22;6664;52.514;13.440;2024-02-14T14:31:17;8.80;99.90
13198;DHT22;6664;52.514;13.440;2024-02-14T14:34:05;8.80;99.90
13198;DHT22;6664;52.514;13.440;2024-02-14T14:36:51;8.80;99.90
13198;DHT22;6664;52.514;13.440;2024-02-14T14:39:38;8.80;99.90
13198;DHT22;6664;52.514;13.440;2024-02-14T14:42:24;8.90;99.90
13198;DHT22;6664;52.514;13.440;2024-02-14T14:45:10;8.90;99.90
13198;DHT22;6664;52.514;13.440;2024-02-14T14:47:55;9.00;99.90
13198;DHT22;6664;52.514;13.440;2024-02-14T14:50:41;9.20;99.90
13198;DHT22;6664;52.514;13.440;2024-02-14T14:53:27;9.20;99.90
13198;DHT22;6664;52.514;13.440;2024-02-14T14:56:13;9.30;99.90
13198;DHT22;6664;52.514;13.440;2024-02-14T14:58:59;9.30;99.90
13198;DHT22;6664;52.514;13.440;2024-02-14T15:01:51;9.40;99.90
13198;DHT22;6664;52.514;13.440;2024-02-14T15:04:37;9.50;99.90
13198;DHT22;6664;52.514;13.440;2024-02-14T15:07:25;9.50;99.90
13198;DHT22;6664;52.514;13.440;2024-02-14T15:10:10;9.60;99.90
13198;DHT22;6664;52.514;13.440;2024-02-14T15:12:56;9.60;99.90
13198;DHT22;6664;52.514;13.440;2024-02-14T15:15:44;9.60;99.90
13198;DHT22;6664;52.514;13.440;2024-02-14T15:18:30;9.60;99.90
13198;DHT22;6664;52.514;13.440;2024-02-14T15:21:16;9.70;99.90
13198;DHT22;6664;52.514;13.440;2024-02-14T15:24:01;9.60;99.90
13198;DHT22;6664;52.514;13.440;2024-02-14T15:26:50;9.70;99.90
13198;DHT22;6664;52.514;13.440;2024-02-14T15:29:45;9.70;99.90
13198;DHT22;6664;52.514;13.440;2024-02-14T15:32:49;9.70;99.90
13198;DHT22;6664;52.514;13.440;2024-02-14T15:35:57;9.80;99.90
13198;DHT22;6664;52.514;13.440;2024-02-14T15:38:43;9.80;99.90
13198;DHT22;6664;52.514;13.440;2024-02-14T15:41:29;9.80;99.90
13198;DHT22;6664;52.514;13.440;2024-02-14T15:44:15;9.80;99.90
13198;DHT22;6664;52.514;13.440;2024-02-14T15:47:01;9.80;99.90
13198;DHT22;6664;52.514;13.440;2024-02-14T15:49:47;9.70;99.90
13198;DHT22;6664;52.514;13.440;2024-02-14T15:52:35;9.80;99.90
13198;DHT22;6664;52.514;13.440;2024-02-14T15:55:20;9.80;99.90
13198;DHT22;6664;52.514;13.440;2024-02-14T15:58:06;9.80;99.90
13198;DHT22;6664;52.514;13.440;2024-02-14T16:00:52;9.70;99.90
13198;DHT22;6664;52.514;13.440;2024-02-14T16:03:41;9.70;99.90
13198;DHT22;6664;52.514;13.440;2024-02-14T16:06:29;9.80;99.90
13198;DHT22;6664;52.514;13.440;2024-02-14T16:09:15;9.80;99.90
13198;DHT22;6664;52.514;13.440;2024-02-14T16:12:00;9.80;99.90
13198;DHT22;6664;52.514;13.440;2024-02-14T16:14:46;9.80;99.90
13198;DHT22;6664;52.514;13.440;2024-02-14T16:17:32;9.80;99.90
13198;DHT22;6664;52.514;13.440;2024-02-14T16:20:18;9.90;99.90
13198;DHT22;6664;52.514;13.440;2024-02-14T16:23:09;9.90;99.90
13198;DHT22;6664;52.514;13.440;2024-02-14T16:25:57;9.90;99.90
13198;DHT22;6664;52.514;13.440;2024-02-14T16:28:43;9.90;99.90
13198;DHT22;6664;52.514;13.440;2024-02-14T16:31:28;9.80;99.90
13198;DHT22;6664;52.514;13.440;2024-02-14T16:34:16;9.80;99.90
13198;DHT22;6664;52.514;13.440;2024-02-14T16:37:05;9.80;99.90
13198;DHT22;6664;52.514;13.440;2024-02-14T16:39:50;9.80;99.90
13198;DHT22;6664;52.514;13.440;2024-02-14T16:42:36;9.80;99.90
13198;DHT22;6664;52.514;13.440;2024-02-14T16:45:22;9.80;99.90
13198;DHT22;6664;52.514;13.440;2024-02-14T16:48:08;9.80;99.90
13198;DHT22;6664;52.514;13.440;2024-02-14T16:50:55;9.80;99.90
13198;DHT22;6664;52.514;13.440;2024-02-14T16:53:40;9.70;99.90
13198;DHT22;6664;52.514;13.440;2024-02-14T16:56:26;9.80;99.90
13198;DHT22;6664;52.514;13.440;2024-02-14T16:59:17;9.80;99.90
13198;DHT22;6664;52.514;13.440;2024-02-14T17:02:03;9.80;99.90
13198;DHT22;6664;52.514;13.440;2024-02-14T17:04:49;9.80;99.90
13198;DHT22;6664;52.514;13.440;2024-02-14T17:07:37;9.80;99.90
13198;DHT22;6664;52.514;13.440;2024-02-14T17:10:23;9.80;99.90
13198;DHT22;6664;52.514;13.440;2024-02-14T17:13:10;9.80;99.90
13198;DHT22;6664;52.514;13.440;2024-02-14T17:15:55;9.90;99.90
13198;DHT22;6664;52.514;13.440;2024-02-14T17:18:41;9.90;99.90
13198;DHT22;6664;52.514;13.440;2024-02-14T17:21:27;9.90;99.90
13198;DHT22;6664;52.514;13.440;2024-02-14T17:24:13;9.90;99.90
13198;DHT22;6664;52.514;13.440;2024-02-14T17:26:59;9.90;99.90
13198;DHT22;6664;52.514;13.440;2024-02-14T17:29:45;9.90;99.90
13198;DHT22;6664;52.514;13.440;2024-02-14T17:32:32;10.00;99.90
13198;DHT22;6664;52.514;13.440;2024-02-14T17:35:25;9.90;99.90
13198;DHT22;6664;52.514;13.440;2024-02-14T17:38:11;9.90;99.90
13198;DHT22;6664;52.514;13.440;2024-02-14T17:40:56;10.00;99.90
13198;DHT22;6664;52.514;13.440;2024-02-14T17:43:44;9.90;99.90
13198;DHT22;6664;52.514;13.440;2024-02-14T17:46:32;10.00;99.90
13198;DHT22;6664;52.514;13.440;2024-02-14T17:49:17;10.00;99.90
13198;DHT22;6664;52.514;13.440;2024-02-14T17:52:04;10.00;99.90